Decoded Metar for UAKK (KARAGANDA in KAZAKHSTAN) (IATA:N/A) | Meteo·Mobile Aviation Weather
aviador You're here:

UAKK Decoded Metar

KARAGANDA in KAZAKHSTAN
Report Time2019-10-22 14:00:00
UTC Time2019-10-22 14:14:28
Flight Rules vfr VFR
Wind190° at 4 kt
W.Decomp.*RWY 23: 2.7 kt HW 3 kt LCW
Visibility9999 m
Phenomena:N/A
Clouds:N/A
Expected CloudBase > 2,000 ft AGL from Temp-Dew spread
CeilingNone
Temp-5°C (ISA -17)
Dew Point-10°C (68% RH)
AAT-9.5°C
QNH1028 hPa
Density Alt-728 ft
Elevation1,765 ft
Report Wrong Elevation
Raw Report
UAKK 221400Z 19002MPS CAVOK M05/M10 Q1028 R23/0///70 NOSIG RMK
QFE724/0965=

Extra information for UAKK:More info

Metar Taf Metar & Taf Last 4 Metars F.Rules Stats Wind Profile Meteogram Temp Stats Airport Information Weather charts Add Link Nearby VenuesMetar ALERT Operation Metar Decoded Social comments